createdAt,value
2018-07-21T00:00:39.247Z,40.90
2018-07-21T00:05:42.630Z,40.90
2018-07-21T00:10:45.851Z,41.00
2018-07-21T00:15:49.047Z,41.00
2018-07-21T00:20:52.270Z,41.00
2018-07-21T00:25:55.695Z,41.00
2018-07-21T00:30:58.909Z,41.10
2018-07-21T00:36:02.116Z,41.00
2018-07-21T00:41:05.319Z,41.00
2018-07-21T00:46:08.530Z,41.00
2018-07-21T00:51:11.742Z,41.00
2018-07-21T00:56:14.943Z,41.10
2018-07-21T01:01:18.136Z,41.00
2018-07-21T01:06:21.350Z,41.10
2018-07-21T01:11:24.583Z,41.10
2018-07-21T01:16:27.791Z,41.10
2018-07-21T01:21:30.997Z,41.10
2018-07-21T01:26:34.198Z,41.10
2018-07-21T01:31:37.407Z,41.20
2018-07-21T01:36:40.611Z,40.60
2018-07-21T01:41:43.819Z,41.20
2018-07-21T01:46:47.022Z,41.20
2018-07-21T01:51:50.226Z,41.10
2018-07-21T01:56:53.414Z,41.40
2018-07-21T02:01:56.598Z,41.30
2018-07-21T02:06:59.802Z,41.90
2018-07-21T02:12:03.015Z,41.20
2018-07-21T02:17:06.203Z,41.30
2018-07-21T02:22:09.395Z,41.90
2018-07-21T02:27:12.579Z,41.70
2018-07-21T02:32:15.766Z,41.40
2018-07-21T02:37:18.956Z,41.50
2018-07-21T02:42:22.142Z,41.50
2018-07-21T02:47:25.327Z,41.50
2018-07-21T02:52:28.583Z,41.60
2018-07-21T02:57:31.773Z,41.60
2018-07-21T03:02:34.951Z,41.60
2018-07-21T03:07:38.167Z,41.70
2018-07-21T03:12:41.433Z,41.70
2018-07-21T03:17:44.635Z,41.80
2018-07-21T03:22:47.935Z,41.80
2018-07-21T03:27:51.126Z,41.90
2018-07-21T03:32:54.327Z,42.60
2018-07-21T03:37:57.546Z,42.70
2018-07-21T03:43:00.746Z,42.10
2018-07-21T03:48:03.947Z,42.10
2018-07-21T03:53:07.219Z,42.20
2018-07-21T03:58:10.429Z,42.20
2018-07-21T04:03:13.619Z,42.20
2018-07-21T04:08:16.814Z,42.40
2018-07-21T04:13:20.023Z,42.40
2018-07-21T04:18:23.218Z,42.40
2018-07-21T04:23:26.414Z,42.40
2018-07-21T04:28:29.603Z,42.50
2018-07-21T04:33:32.798Z,42.50
2018-07-21T04:38:35.998Z,42.60
2018-07-21T04:43:39.195Z,42.60
2018-07-21T04:48:42.395Z,42.70
2018-07-21T04:53:45.600Z,42.70
2018-07-21T04:58:48.795Z,43.20
2018-07-21T05:03:51.991Z,42.80
2018-07-21T05:08:55.187Z,42.90
2018-07-21T05:13:58.395Z,42.90
2018-07-21T05:19:01.675Z,43.00
2018-07-21T05:24:05.279Z,42.90
2018-07-21T05:29:08.463Z,43.00
2018-07-21T05:34:11.651Z,43.00
2018-07-21T05:39:14.942Z,43.10
2018-07-21T05:44:18.023Z,43.10
2018-07-21T05:54:24.179Z,43.20
2018-07-21T05:59:27.373Z,43.20
2018-07-21T06:04:30.556Z,43.30
2018-07-21T06:09:34.588Z,43.40
2018-07-21T06:14:37.823Z,43.50
2018-07-21T06:19:41.007Z,43.60
2018-07-21T06:24:44.209Z,43.70
2018-07-21T06:29:47.418Z,43.70
2018-07-21T06:34:50.609Z,44.40
2018-07-21T06:39:53.787Z,44.00
2018-07-21T06:44:56.971Z,43.90
2018-07-21T06:50:00.163Z,43.90
2018-07-21T06:55:03.363Z,44.00
2018-07-21T07:00:06.577Z,44.30
2018-07-21T07:05:10.095Z,45.20
2018-07-21T07:10:13.311Z,44.60
2018-07-21T07:15:16.531Z,45.20
2018-07-21T07:20:19.731Z,44.60
2018-07-21T07:25:22.930Z,44.60
2018-07-21T07:30:26.126Z,44.60
2018-07-21T07:35:29.323Z,44.60
2018-07-21T07:40:32.523Z,44.60
2018-07-21T07:45:35.765Z,44.50
2018-07-21T07:50:38.960Z,44.40
2018-07-21T07:55:42.155Z,44.30
2018-07-21T08:00:45.355Z,44.20
2018-07-21T08:05:48.547Z,44.10
2018-07-21T08:15:54.715Z,44.80
2018-07-21T08:20:57.902Z,44.60
2018-07-21T08:26:01.119Z,44.00
2018-07-21T08:31:04.315Z,44.00
2018-07-21T08:36:07.992Z,43.90
2018-07-21T08:41:11.199Z,43.80
2018-07-21T08:46:14.395Z,44.40
2018-07-21T08:51:17.587Z,44.40
2018-07-21T08:56:20.787Z,43.80
2018-07-21T09:01:23.982Z,43.70
2018-07-21T09:06:27.179Z,43.70
2018-07-21T09:11:30.391Z,43.70
2018-07-21T09:16:33.584Z,43.70
2018-07-21T09:21:36.814Z,43.80
2018-07-21T09:26:39.951Z,43.90
2018-07-21T09:31:43.155Z,43.80
2018-07-21T09:36:46.339Z,44.00
2018-07-21T09:41:49.547Z,43.80
2018-07-21T09:46:52.731Z,43.90
2018-07-21T09:51:55.927Z,43.90
2018-07-21T09:56:59.114Z,43.90
2018-07-21T10:02:02.300Z,43.90
2018-07-21T10:07:05.754Z,43.80
2018-07-21T10:12:08.950Z,43.80
2018-07-21T10:17:12.220Z,43.80
2018-07-21T10:22:15.454Z,43.90
2018-07-21T10:27:18.598Z,43.90
2018-07-21T10:32:21.783Z,43.90
2018-07-21T10:37:24.971Z,44.20
2018-07-21T10:42:28.267Z,44.30
2018-07-21T10:47:31.472Z,44.20
2018-07-21T10:52:34.655Z,44.10
2018-07-21T10:57:37.842Z,43.80
2018-07-21T11:02:41.049Z,44.00
2018-07-21T11:07:44.227Z,43.60
2018-07-21T11:12:47.431Z,43.50
2018-07-21T11:17:50.632Z,43.40
2018-07-21T11:22:53.815Z,42.70
2018-07-21T11:27:57.006Z,43.20
2018-07-21T11:33:00.195Z,42.90
2018-07-21T11:38:03.751Z,42.90
2018-07-21T11:43:06.963Z,42.80
2018-07-21T11:48:10.158Z,43.00
2018-07-21T11:53:13.347Z,42.90
2018-07-21T11:58:16.530Z,42.70
2018-07-21T12:03:19.714Z,42.60
2018-07-21T12:08:22.899Z,42.60
2018-07-21T12:13:26.152Z,42.60
2018-07-21T12:18:29.307Z,42.60
2018-07-21T12:23:32.511Z,42.60
2018-07-21T12:28:35.704Z,42.60
2018-07-21T12:33:38.930Z,42.60
2018-07-21T12:38:42.095Z,42.60
2018-07-21T12:43:45.334Z,42.80
2018-07-21T12:48:48.535Z,42.80
2018-07-21T12:53:51.743Z,42.70
2018-07-21T12:58:54.935Z,42.80
2018-07-21T13:03:58.278Z,42.90
2018-07-21T13:09:01.479Z,42.90
2018-07-21T13:14:04.691Z,43.00
2018-07-21T13:19:08.219Z,43.00
2018-07-21T13:29:14.352Z,43.20
2018-07-21T13:34:17.539Z,43.20
2018-07-21T13:39:20.719Z,43.20
2018-07-21T13:44:24.025Z,43.20
2018-07-21T13:49:27.184Z,43.20
2018-07-21T13:54:30.367Z,43.30
2018-07-21T13:59:33.547Z,43.20
2018-07-21T14:04:36.734Z,43.20
2018-07-21T14:09:39.920Z,43.20
2018-07-21T14:14:43.147Z,43.20
2018-07-21T14:19:46.348Z,43.30
2018-07-21T14:24:49.546Z,43.20
2018-07-21T14:29:52.866Z,43.30
2018-07-21T14:34:55.948Z,43.70
2018-07-21T14:39:59.150Z,43.20
2018-07-21T14:45:02.423Z,43.20
2018-07-21T14:50:06.098Z,43.20
2018-07-21T14:55:09.317Z,43.20
2018-07-21T15:00:12.498Z,43.30
2018-07-21T15:05:15.691Z,43.10
2018-07-21T15:10:18.887Z,43.20
2018-07-21T15:15:22.618Z,43.10
2018-07-21T15:20:25.807Z,43.10
2018-07-21T15:25:28.995Z,43.10
2018-07-21T15:30:32.327Z,43.10
2018-07-21T15:40:38.479Z,43.10
2018-07-21T15:45:41.663Z,43.10
2018-07-21T15:50:44.871Z,43.10
2018-07-21T15:55:48.058Z,43.00
2018-07-21T16:00:51.247Z,43.10
2018-07-21T16:05:54.431Z,43.20
2018-07-21T16:10:57.631Z,43.10
2018-07-21T16:16:00.850Z,43.70
2018-07-21T16:21:04.051Z,43.00
2018-07-21T16:26:07.234Z,43.10
2018-07-21T16:31:10.442Z,43.00
2018-07-21T16:36:13.655Z,43.20
2018-07-21T16:41:16.832Z,43.00
2018-07-21T16:46:20.055Z,43.10
2018-07-21T16:51:23.218Z,43.10
2018-07-21T16:56:26.411Z,43.20
2018-07-21T17:01:29.614Z,43.30
2018-07-21T17:06:32.803Z,43.30
2018-07-21T17:11:36.044Z,43.30
2018-07-21T17:21:42.268Z,43.40
2018-07-21T17:26:45.469Z,43.50
2018-07-21T17:31:48.675Z,43.00
2018-07-21T17:36:51.883Z,43.50
2018-07-21T17:41:55.088Z,43.60
2018-07-21T17:46:58.299Z,43.70
2018-07-21T17:52:01.507Z,43.80
2018-07-21T17:57:04.710Z,43.80
2018-07-21T18:02:07.962Z,43.90
2018-07-21T18:07:11.195Z,44.00
2018-07-21T18:12:14.416Z,44.10
2018-07-21T18:17:17.603Z,44.10
2018-07-21T18:22:20.798Z,44.20
2018-07-21T18:27:24.047Z,44.30
2018-07-21T18:32:27.246Z,44.30
2018-07-21T18:37:30.438Z,44.30
2018-07-21T18:42:33.751Z,44.40
2018-07-21T18:47:36.955Z,44.40
2018-07-21T18:52:40.155Z,44.40
2018-07-21T18:57:43.334Z,44.50
2018-07-21T19:02:46.533Z,44.50
2018-07-21T19:07:49.739Z,44.60
2018-07-21T19:12:52.950Z,44.50
2018-07-21T19:17:56.139Z,44.50
2018-07-21T19:22:59.331Z,44.40
2018-07-21T19:28:02.519Z,44.40
2018-07-21T19:33:05.719Z,44.40
2018-07-21T19:38:08.934Z,44.60
2018-07-21T19:43:12.145Z,44.40
2018-07-21T19:48:15.335Z,44.30
2018-07-21T19:53:18.531Z,44.30
2018-07-21T19:58:21.816Z,44.30
2018-07-21T20:03:25.135Z,44.10
2018-07-21T20:08:28.353Z,44.60
2018-07-21T20:13:31.541Z,44.50
2018-07-21T20:18:34.737Z,44.30
2018-07-21T20:23:37.934Z,44.30
2018-07-21T20:28:41.132Z,44.30
2018-07-21T20:33:44.330Z,44.40
2018-07-21T20:38:47.527Z,44.30
2018-07-21T20:43:50.729Z,44.30
2018-07-21T20:48:53.932Z,44.30
2018-07-21T20:53:57.119Z,44.40
2018-07-21T20:59:00.336Z,44.80
2018-07-21T21:04:03.546Z,44.40
2018-07-21T21:09:08.615Z,44.60
2018-07-21T21:14:11.827Z,44.70
2018-07-21T21:19:15.015Z,45.30
2018-07-21T21:24:18.206Z,44.80
2018-07-21T21:29:21.395Z,45.10
2018-07-21T21:34:24.587Z,45.10
2018-07-21T21:39:27.771Z,45.20
2018-07-21T21:44:30.960Z,45.20
2018-07-21T21:49:34.151Z,45.30
2018-07-21T21:54:37.385Z,45.20
2018-07-21T21:59:40.524Z,45.30
2018-07-21T22:04:43.746Z,45.30
2018-07-21T22:09:46.895Z,45.20
2018-07-21T22:14:50.116Z,45.30
2018-07-21T22:19:53.323Z,45.30
2018-07-21T22:24:56.523Z,45.30
2018-07-21T22:29:59.723Z,45.30
2018-07-21T22:35:02.919Z,45.50
2018-07-21T22:40:06.146Z,45.40
2018-07-21T22:45:09.343Z,45.40
2018-07-21T22:50:12.538Z,45.50
2018-07-21T22:55:15.730Z,45.50
2018-07-21T23:00:18.935Z,45.60
2018-07-21T23:05:22.134Z,45.50
2018-07-21T23:10:25.335Z,45.60
2018-07-21T23:15:28.538Z,45.70
2018-07-21T23:20:31.726Z,45.70
2018-07-21T23:25:34.911Z,46.40
2018-07-21T23:30:38.098Z,45.80
2018-07-21T23:35:41.286Z,45.80
2018-07-21T23:40:44.471Z,45.90
2018-07-21T23:45:47.802Z,46.00
2018-07-21T23:50:50.938Z,46.00
2018-07-21T23:55:54.135Z,46.00
